sensor_id;sensor_type;location;lat;lon;timestamp;P1;durP1;ratioP1;P2;durP2;ratioP2
77968;SDS011;67161;0.000;0.000;2023-04-08T00:01:41;897.20;;;282.17;;
77968;SDS011;67161;0.000;0.000;2023-04-08T00:04:06;898.95;;;283.15;;
77968;SDS011;67161;0.000;0.000;2023-04-08T00:06:33;897.33;;;282.65;;
77968;SDS011;67161;0.000;0.000;2023-04-08T00:08:59;895.28;;;281.75;;
77968;SDS011;67161;0.000;0.000;2023-04-08T00:11:25;892.33;;;282.17;;
77968;SDS011;67161;0.000;0.000;2023-04-08T00:13:50;892.78;;;281.13;;
77968;SDS011;67161;0.000;0.000;2023-04-08T00:16:16;891.03;;;281.58;;
77968;SDS011;67161;0.000;0.000;2023-04-08T00:18:42;889.80;;;281.77;;
77968;SDS011;67161;0.000;0.000;2023-04-08T00:21:07;892.72;;;282.33;;
77968;SDS011;67161;0.000;0.000;2023-04-08T00:23:33;897.55;;;282.50;;
77968;SDS011;67161;0.000;0.000;2023-04-08T00:25:59;897.08;;;284.00;;
77968;SDS011;67161;0.000;0.000;2023-04-08T00:28:24;900.40;;;283.92;;
77968;SDS011;67161;0.000;0.000;2023-04-08T00:30:51;896.20;;;283.35;;
77968;SDS011;67161;0.000;0.000;2023-04-08T00:33:17;894.90;;;283.05;;
77968;SDS011;67161;0.000;0.000;2023-04-08T00:35:42;898.33;;;283.15;;
77968;SDS011;67161;0.000;0.000;2023-04-08T00:38:08;900.83;;;283.50;;
77968;SDS011;67161;0.000;0.000;2023-04-08T00:40:34;897.22;;;284.02;;
77968;SDS011;67161;0.000;0.000;2023-04-08T00:42:59;898.75;;;283.30;;
77968;SDS011;67161;0.000;0.000;2023-04-08T00:45:25;900.88;;;283.92;;
77968;SDS011;67161;0.000;0.000;2023-04-08T00:47:51;901.40;;;284.35;;
77968;SDS011;67161;0.000;0.000;2023-04-08T00:50:16;900.42;;;283.85;;
77968;SDS011;67161;0.000;0.000;2023-04-08T00:52:43;899.95;;;283.83;;
77968;SDS011;67161;0.000;0.000;2023-04-08T00:55:09;900.10;;;283.55;;
77968;SDS011;67161;0.000;0.000;2023-04-08T00:57:34;901.67;;;284.08;;
77968;SDS011;67161;0.000;0.000;2023-04-08T01:00:00;896.60;;;284.27;;
77968;SDS011;67161;0.000;0.000;2023-04-08T01:02:35;899.30;;;283.80;;
77968;SDS011;67161;0.000;0.000;2023-04-08T01:05:22;898.17;;;284.70;;
77968;SDS011;67161;0.000;0.000;2023-04-08T01:07:50;900.95;;;284.77;;
77968;SDS011;67161;0.000;0.000;2023-04-08T01:10:17;898.03;;;284.13;;
77968;SDS011;67161;0.000;0.000;2023-04-08T01:12:51;898.13;;;284.42;;
77968;SDS011;67161;0.000;0.000;2023-04-08T01:15:23;898.25;;;284.33;;
77968;SDS011;67161;0.000;0.000;2023-04-08T01:17:52;900.63;;;285.02;;
77968;SDS011;67161;0.000;0.000;2023-04-08T01:20:20;898.63;;;285.08;;
77968;SDS011;67161;0.000;0.000;2023-04-08T01:23:35;901.00;;;284.15;;
77968;SDS011;67161;0.000;0.000;2023-04-08T01:25:49;898.88;;;284.02;;
77968;SDS011;67161;0.000;0.000;2023-04-08T01:28:17;904.42;;;285.83;;
77968;SDS011;67161;0.000;0.000;2023-04-08T01:30:45;905.20;;;285.45;;
77968;SDS011;67161;0.000;0.000;2023-04-08T01:33:13;905.83;;;286.02;;
77968;SDS011;67161;0.000;0.000;2023-04-08T01:35:40;905.05;;;285.65;;
77968;SDS011;67161;0.000;0.000;2023-04-08T01:38:08;905.15;;;286.05;;
77968;SDS011;67161;0.000;0.000;2023-04-08T01:40:38;903.35;;;286.77;;
77968;SDS011;67161;0.000;0.000;2023-04-08T01:43:05;911.38;;;287.67;;
77968;SDS011;67161;0.000;0.000;2023-04-08T01:45:33;903.30;;;286.80;;
77968;SDS011;67161;0.000;0.000;2023-04-08T01:47:59;899.63;;;285.92;;
77968;SDS011;67161;0.000;0.000;2023-04-08T01:50:26;906.60;;;286.88;;
77968;SDS011;67161;0.000;0.000;2023-04-08T01:52:53;912.33;;;288.88;;
77968;SDS011;67161;0.000;0.000;2023-04-08T01:55:20;904.13;;;285.80;;
77968;SDS011;67161;0.000;0.000;2023-04-08T01:57:47;903.05;;;285.30;;
77968;SDS011;67161;0.000;0.000;2023-04-08T02:00:17;902.30;;;286.08;;
77968;SDS011;67161;0.000;0.000;2023-04-08T02:02:45;903.80;;;285.17;;
77968;SDS011;67161;0.000;0.000;2023-04-08T02:05:12;902.03;;;286.35;;
77968;SDS011;67161;0.000;0.000;2023-04-08T02:07:38;904.42;;;286.50;;
77968;SDS011;67161;0.000;0.000;2023-04-08T02:10:04;906.22;;;285.45;;
77968;SDS011;67161;0.000;0.000;2023-04-08T02:12:31;912.25;;;287.60;;
77968;SDS011;67161;0.000;0.000;2023-04-08T02:14:58;913.05;;;288.70;;
77968;SDS011;67161;0.000;0.000;2023-04-08T02:17:25;911.83;;;287.63;;
77968;SDS011;67161;0.000;0.000;2023-04-08T02:20:02;917.25;;;290.10;;
77968;SDS011;67161;0.000;0.000;2023-04-08T02:22:42;913.63;;;288.50;;
77968;SDS011;67161;0.000;0.000;2023-04-08T02:25:15;915.03;;;289.27;;
77968;SDS011;67161;0.000;0.000;2023-04-08T02:27:41;909.25;;;289.08;;
77968;SDS011;67161;0.000;0.000;2023-04-08T02:30:10;912.67;;;288.30;;
77968;SDS011;67161;0.000;0.000;2023-04-08T02:32:37;910.05;;;287.73;;
77968;SDS011;67161;0.000;0.000;2023-04-08T02:35:04;908.95;;;287.00;;
77968;SDS011;67161;0.000;0.000;2023-04-08T02:37:30;910.60;;;288.15;;
77968;SDS011;67161;0.000;0.000;2023-04-08T02:39:56;910.45;;;287.58;;
77968;SDS011;67161;0.000;0.000;2023-04-08T02:42:23;905.60;;;287.33;;
77968;SDS011;67161;0.000;0.000;2023-04-08T02:44:49;908.95;;;287.17;;
77968;SDS011;67161;0.000;0.000;2023-04-08T02:47:15;908.25;;;287.88;;
77968;SDS011;67161;0.000;0.000;2023-04-08T02:49:41;907.67;;;288.38;;
77968;SDS011;67161;0.000;0.000;2023-04-08T02:52:06;912.83;;;288.67;;
77968;SDS011;67161;0.000;0.000;2023-04-08T02:54:32;912.70;;;289.63;;
77968;SDS011;67161;0.000;0.000;2023-04-08T02:56:57;909.95;;;289.15;;
77968;SDS011;67161;0.000;0.000;2023-04-08T02:59:23;914.42;;;289.02;;
77968;SDS011;67161;0.000;0.000;2023-04-08T03:01:49;906.10;;;288.35;;
77968;SDS011;67161;0.000;0.000;2023-04-08T03:04:15;915.05;;;289.58;;
77968;SDS011;67161;0.000;0.000;2023-04-08T03:06:40;916.97;;;289.98;;
77968;SDS011;67161;0.000;0.000;2023-04-08T03:09:06;913.20;;;288.05;;
77968;SDS011;67161;0.000;0.000;2023-04-08T03:11:31;907.38;;;288.55;;
77968;SDS011;67161;0.000;0.000;2023-04-08T03:13:58;916.05;;;289.73;;
77968;SDS011;67161;0.000;0.000;2023-04-08T03:16:23;911.30;;;288.25;;
77968;SDS011;67161;0.000;0.000;2023-04-08T03:18:49;901.38;;;286.77;;
77968;SDS011;67161;0.000;0.000;2023-04-08T03:21:15;910.55;;;288.35;;
77968;SDS011;67161;0.000;0.000;2023-04-08T03:23:41;911.28;;;288.13;;
77968;SDS011;67161;0.000;0.000;2023-04-08T03:26:06;916.80;;;290.10;;
77968;SDS011;67161;0.000;0.000;2023-04-08T03:28:32;901.35;;;285.15;;
77968;SDS011;67161;0.000;0.000;2023-04-08T03:30:58;899.97;;;284.95;;
77968;SDS011;67161;0.000;0.000;2023-04-08T03:33:24;897.08;;;286.23;;
77968;SDS011;67161;0.000;0.000;2023-04-08T03:35:50;899.00;;;286.33;;
77968;SDS011;67161;0.000;0.000;2023-04-08T03:38:17;899.70;;;285.98;;
77968;SDS011;67161;0.000;0.000;2023-04-08T03:40:43;899.75;;;286.60;;
77968;SDS011;67161;0.000;0.000;2023-04-08T03:43:08;905.95;;;287.08;;
77968;SDS011;67161;0.000;0.000;2023-04-08T03:45:35;904.55;;;287.83;;
77968;SDS011;67161;0.000;0.000;2023-04-08T03:48:01;909.05;;;288.98;;
77968;SDS011;67161;0.000;0.000;2023-04-08T03:50:27;907.83;;;287.85;;
77968;SDS011;67161;0.000;0.000;2023-04-08T03:52:53;908.40;;;289.20;;
77968;SDS011;67161;0.000;0.000;2023-04-08T03:55:18;914.00;;;290.13;;
77968;SDS011;67161;0.000;0.000;2023-04-08T03:57:44;912.38;;;290.55;;
77968;SDS011;67161;0.000;0.000;2023-04-08T04:00:10;912.20;;;289.48;;
77968;SDS011;67161;0.000;0.000;2023-04-08T04:02:36;911.47;;;290.63;;
77968;SDS011;67161;0.000;0.000;2023-04-08T04:05:01;913.35;;;290.13;;
77968;SDS011;67161;0.000;0.000;2023-04-08T04:07:27;907.97;;;289.60;;
77968;SDS011;67161;0.000;0.000;2023-04-08T04:09:53;908.83;;;289.30;;
77968;SDS011;67161;0.000;0.000;2023-04-08T04:12:21;918.35;;;291.30;;
77968;SDS011;67161;0.000;0.000;2023-04-08T04:14:47;919.90;;;292.17;;
77968;SDS011;67161;0.000;0.000;2023-04-08T04:17:12;918.38;;;291.85;;
77968;SDS011;67161;0.000;0.000;2023-04-08T04:19:38;913.92;;;291.98;;
77968;SDS011;67161;0.000;0.000;2023-04-08T04:22:03;910.97;;;291.27;;
77968;SDS011;67161;0.000;0.000;2023-04-08T04:24:29;920.58;;;292.55;;
77968;SDS011;67161;0.000;0.000;2023-04-08T04:26:54;916.53;;;292.40;;
77968;SDS011;67161;0.000;0.000;2023-04-08T04:29:20;914.35;;;291.10;;
77968;SDS011;67161;0.000;0.000;2023-04-08T04:31:46;915.20;;;293.20;;
77968;SDS011;67161;0.000;0.000;2023-04-08T04:34:11;916.92;;;292.75;;
77968;SDS011;67161;0.000;0.000;2023-04-08T04:36:37;925.50;;;294.42;;
77968;SDS011;67161;0.000;0.000;2023-04-08T04:39:02;932.97;;;296.50;;
77968;SDS011;67161;0.000;0.000;2023-04-08T04:41:28;923.40;;;294.42;;
77968;SDS011;67161;0.000;0.000;2023-04-08T04:43:54;931.03;;;295.75;;
77968;SDS011;67161;0.000;0.000;2023-04-08T04:46:20;933.13;;;297.00;;
77968;SDS011;67161;0.000;0.000;2023-04-08T04:48:46;928.38;;;296.75;;
77968;SDS011;67161;0.000;0.000;2023-04-08T04:51:11;932.33;;;296.88;;
77968;SDS011;67161;0.000;0.000;2023-04-08T04:53:37;933.80;;;296.95;;
77968;SDS011;67161;0.000;0.000;2023-04-08T04:56:03;926.35;;;296.65;;
77968;SDS011;67161;0.000;0.000;2023-04-08T04:58:29;935.05;;;297.67;;
77968;SDS011;67161;0.000;0.000;2023-04-08T05:00:55;923.92;;;295.70;;
77968;SDS011;67161;0.000;0.000;2023-04-08T05:03:21;931.83;;;296.20;;
77968;SDS011;67161;0.000;0.000;2023-04-08T05:05:50;931.30;;;296.58;;
77968;SDS011;67161;0.000;0.000;2023-04-08T05:08:16;922.75;;;295.20;;
77968;SDS011;67161;0.000;0.000;2023-04-08T05:10:42;933.83;;;298.42;;
77968;SDS011;67161;0.000;0.000;2023-04-08T05:13:07;930.78;;;297.92;;
77968;SDS011;67161;0.000;0.000;2023-04-08T05:15:33;934.17;;;297.88;;
77968;SDS011;67161;0.000;0.000;2023-04-08T05:17:59;930.65;;;296.77;;
77968;SDS011;67161;0.000;0.000;2023-04-08T05:20:25;924.97;;;296.00;;
77968;SDS011;67161;0.000;0.000;2023-04-08T05:22:50;922.67;;;295.75;;
77968;SDS011;67161;0.000;0.000;2023-04-08T05:25:16;927.22;;;294.98;;
77968;SDS011;67161;0.000;0.000;2023-04-08T05:27:41;923.10;;;296.08;;
77968;SDS011;67161;0.000;0.000;2023-04-08T05:30:07;922.95;;;295.77;;
77968;SDS011;67161;0.000;0.000;2023-04-08T05:32:33;931.75;;;296.88;;
77968;SDS011;67161;0.000;0.000;2023-04-08T05:35:01;923.38;;;295.77;;
77968;SDS011;67161;0.000;0.000;2023-04-08T05:37:27;931.30;;;296.90;;
77968;SDS011;67161;0.000;0.000;2023-04-08T05:39:53;926.97;;;296.63;;
77968;SDS011;67161;0.000;0.000;2023-04-08T05:42:18;930.53;;;297.85;;
77968;SDS011;67161;0.000;0.000;2023-04-08T05:44:44;930.10;;;297.00;;
77968;SDS011;67161;0.000;0.000;2023-04-08T05:47:09;935.95;;;298.23;;
77968;SDS011;67161;0.000;0.000;2023-04-08T05:49:35;935.70;;;298.30;;
77968;SDS011;67161;0.000;0.000;2023-04-08T05:52:01;931.15;;;297.23;;
77968;SDS011;67161;0.000;0.000;2023-04-08T05:54:27;935.03;;;297.85;;
77968;SDS011;67161;0.000;0.000;2023-04-08T05:56:53;929.15;;;297.65;;
77968;SDS011;67161;0.000;0.000;2023-04-08T05:59:19;925.25;;;296.80;;
77968;SDS011;67161;0.000;0.000;2023-04-08T06:01:45;932.00;;;298.00;;
77968;SDS011;67161;0.000;0.000;2023-04-08T06:04:10;933.92;;;297.23;;
77968;SDS011;67161;0.000;0.000;2023-04-08T06:06:36;941.08;;;299.75;;
77968;SDS011;67161;0.000;0.000;2023-04-08T06:09:03;936.13;;;300.02;;
77968;SDS011;67161;0.000;0.000;2023-04-08T06:11:29;933.28;;;299.02;;
77968;SDS011;67161;0.000;0.000;2023-04-08T06:13:55;938.22;;;298.98;;
77968;SDS011;67161;0.000;0.000;2023-04-08T06:16:20;937.58;;;298.50;;
77968;SDS011;67161;0.000;0.000;2023-04-08T06:18:46;945.17;;;301.50;;
77968;SDS011;67161;0.000;0.000;2023-04-08T06:21:11;945.85;;;301.23;;
77968;SDS011;67161;0.000;0.000;2023-04-08T06:23:37;947.50;;;301.75;;
77968;SDS011;67161;0.000;0.000;2023-04-08T06:26:02;949.85;;;303.20;;
77968;SDS011;67161;0.000;0.000;2023-04-08T06:28:29;931.38;;;298.95;;
77968;SDS011;67161;0.000;0.000;2023-04-08T06:30:55;923.20;;;295.85;;
77968;SDS011;67161;0.000;0.000;2023-04-08T06:33:21;933.63;;;298.52;;
77968;SDS011;67161;0.000;0.000;2023-04-08T06:35:46;950.15;;;302.08;;
77968;SDS011;67161;0.000;0.000;2023-04-08T06:38:12;935.20;;;298.88;;
77968;SDS011;67161;0.000;0.000;2023-04-08T06:40:38;943.08;;;299.90;;
77968;SDS011;67161;0.000;0.000;2023-04-08T06:43:04;935.03;;;298.95;;
77968;SDS011;67161;0.000;0.000;2023-04-08T06:45:31;928.47;;;296.95;;
77968;SDS011;67161;0.000;0.000;2023-04-08T06:47:57;926.00;;;294.65;;
77968;SDS011;67161;0.000;0.000;2023-04-08T06:50:23;924.03;;;295.92;;
77968;SDS011;67161;0.000;0.000;2023-04-08T06:52:48;931.95;;;296.90;;
77968;SDS011;67161;0.000;0.000;2023-04-08T06:55:14;930.00;;;295.77;;
77968;SDS011;67161;0.000;0.000;2023-04-08T06:57:40;934.97;;;297.00;;
77968;SDS011;67161;0.000;0.000;2023-04-08T07:00:05;923.95;;;293.85;;
77968;SDS011;67161;0.000;0.000;2023-04-08T07:02:31;919.05;;;294.75;;
77968;SDS011;67161;0.000;0.000;2023-04-08T07:04:57;928.42;;;296.52;;
77968;SDS011;67161;0.000;0.000;2023-04-08T07:07:22;924.92;;;295.40;;
77968;SDS011;67161;0.000;0.000;2023-04-08T07:09:49;929.33;;;296.33;;
77968;SDS011;67161;0.000;0.000;2023-04-08T07:12:15;938.25;;;298.17;;
77968;SDS011;67161;0.000;0.000;2023-04-08T07:14:41;924.60;;;295.55;;
77968;SDS011;67161;0.000;0.000;2023-04-08T07:17:06;937.15;;;297.70;;
77968;SDS011;67161;0.000;0.000;2023-04-08T07:19:32;939.30;;;298.67;;
77968;SDS011;67161;0.000;0.000;2023-04-08T07:21:57;936.10;;;297.10;;
77968;SDS011;67161;0.000;0.000;2023-04-08T07:24:23;924.22;;;293.92;;
77968;SDS011;67161;0.000;0.000;2023-04-08T07:26:49;928.60;;;295.20;;
77968;SDS011;67161;0.000;0.000;2023-04-08T07:29:15;917.42;;;291.88;;
77968;SDS011;67161;0.000;0.000;2023-04-08T07:31:43;917.50;;;291.85;;
77968;SDS011;67161;0.000;0.000;2023-04-08T07:34:09;912.28;;;291.73;;
77968;SDS011;67161;0.000;0.000;2023-04-08T07:36:35;920.83;;;292.52;;
77968;SDS011;67161;0.000;0.000;2023-04-08T07:39:00;918.97;;;292.77;;
77968;SDS011;67161;0.000;0.000;2023-04-08T07:41:27;911.90;;;290.58;;
77968;SDS011;67161;0.000;0.000;2023-04-08T07:43:52;910.33;;;288.83;;
77968;SDS011;67161;0.000;0.000;2023-04-08T07:46:18;906.70;;;289.75;;
77968;SDS011;67161;0.000;0.000;2023-04-08T07:48:45;913.97;;;290.90;;
77968;SDS011;67161;0.000;0.000;2023-04-08T07:51:11;911.90;;;290.23;;
77968;SDS011;67161;0.000;0.000;2023-04-08T07:53:37;911.08;;;290.08;;
77968;SDS011;67161;0.000;0.000;2023-04-08T07:56:09;912.88;;;291.00;;
77968;SDS011;67161;0.000;0.000;2023-04-08T08:01:02;928.75;;;294.70;;
77968;SDS011;67161;0.000;0.000;2023-04-08T08:03:27;917.45;;;292.33;;
77968;SDS011;67161;0.000;0.000;2023-04-08T08:05:53;909.30;;;290.55;;
77968;SDS011;67161;0.000;0.000;2023-04-08T08:08:18;906.08;;;286.95;;
77968;SDS011;67161;0.000;0.000;2023-04-08T08:10:44;908.95;;;287.10;;
77968;SDS011;67161;0.000;0.000;2023-04-08T08:13:10;905.72;;;286.85;;
77968;SDS011;67161;0.000;0.000;2023-04-08T08:15:39;913.45;;;289.25;;
77968;SDS011;67161;0.000;0.000;2023-04-08T08:18:04;914.05;;;289.08;;
77968;SDS011;67161;0.000;0.000;2023-04-08T08:20:30;913.28;;;287.40;;
77968;SDS011;67161;0.000;0.000;2023-04-08T08:22:55;899.70;;;286.70;;
77968;SDS011;67161;0.000;0.000;2023-04-08T08:25:21;907.38;;;286.10;;
77968;SDS011;67161;0.000;0.000;2023-04-08T08:27:47;890.78;;;283.80;;
77968;SDS011;67161;0.000;0.000;2023-04-08T08:30:13;896.20;;;282.58;;
77968;SDS011;67161;0.000;0.000;2023-04-08T08:32:38;893.28;;;283.95;;
77968;SDS011;67161;0.000;0.000;2023-04-08T08:35:04;898.17;;;284.23;;
77968;SDS011;67161;0.000;0.000;2023-04-08T08:37:30;891.58;;;282.25;;
77968;SDS011;67161;0.000;0.000;2023-04-08T08:39:55;887.80;;;282.27;;
77968;SDS011;67161;0.000;0.000;2023-04-08T08:42:22;888.50;;;283.42;;
77968;SDS011;67161;0.000;0.000;2023-04-08T08:44:48;882.75;;;281.77;;
77968;SDS011;67161;0.000;0.000;2023-04-08T08:47:17;893.35;;;282.52;;
77968;SDS011;67161;0.000;0.000;2023-04-08T08:49:43;892.63;;;282.35;;
77968;SDS011;67161;0.000;0.000;2023-04-08T08:52:09;883.45;;;281.70;;
77968;SDS011;67161;0.000;0.000;2023-04-08T08:54:35;889.97;;;281.85;;
77968;SDS011;67161;0.000;0.000;2023-04-08T08:57:01;888.25;;;281.55;;
77968;SDS011;67161;0.000;0.000;2023-04-08T08:59:27;889.72;;;282.17;;
77968;SDS011;67161;0.000;0.000;2023-04-08T09:01:53;895.70;;;283.40;;
77968;SDS011;67161;0.000;0.000;2023-04-08T09:04:19;897.20;;;284.08;;
77968;SDS011;67161;0.000;0.000;2023-04-08T09:06:47;896.22;;;283.55;;
77968;SDS011;67161;0.000;0.000;2023-04-08T09:09:48;895.20;;;283.92;;
77968;SDS011;67161;0.000;0.000;2023-04-08T09:12:15;893.17;;;284.75;;
77968;SDS011;67161;0.000;0.000;2023-04-08T09:14:40;907.20;;;288.30;;
77968;SDS011;67161;0.000;0.000;2023-04-08T09:17:07;908.63;;;291.67;;
77968;SDS011;67161;0.000;0.000;2023-04-08T09:19:33;909.40;;;293.40;;
77968;SDS011;67161;0.000;0.000;2023-04-08T09:22:08;936.72;;;301.95;;
77968;SDS011;67161;0.000;0.000;2023-04-08T09:24:35;943.72;;;303.90;;
77968;SDS011;67161;0.000;0.000;2023-04-08T09:27:04;934.92;;;302.77;;
77968;SDS011;67161;0.000;0.000;2023-04-08T09:29:30;955.88;;;312.30;;
77968;SDS011;67161;0.000;0.000;2023-04-08T09:31:56;951.70;;;308.55;;
77968;SDS011;67161;0.000;0.000;2023-04-08T09:34:23;942.30;;;306.58;;
77968;SDS011;67161;0.000;0.000;2023-04-08T09:36:50;938.85;;;303.70;;
77968;SDS011;67161;0.000;0.000;2023-04-08T09:39:16;934.53;;;302.67;;
77968;SDS011;67161;0.000;0.000;2023-04-08T09:41:42;941.80;;;301.85;;
77968;SDS011;67161;0.000;0.000;2023-04-08T09:44:09;931.20;;;301.52;;
77968;SDS011;67161;0.000;0.000;2023-04-08T09:49:06;928.72;;;302.95;;
77968;SDS011;67161;0.000;0.000;2023-04-08T09:51:55;918.83;;;299.17;;
77968;SDS011;67161;0.000;0.000;2023-04-08T09:54:30;910.13;;;293.40;;
77968;SDS011;67161;0.000;0.000;2023-04-08T09:57:09;918.25;;;296.45;;
77968;SDS011;67161;0.000;0.000;2023-04-08T09:59:37;962.58;;;311.45;;
77968;SDS011;67161;0.000;0.000;2023-04-08T10:02:12;956.25;;;314.40;;
77968;SDS011;67161;0.000;0.000;2023-04-08T10:04:43;942.67;;;304.08;;
77968;SDS011;67161;0.000;0.000;2023-04-08T10:07:12;939.33;;;302.75;;
77968;SDS011;67161;0.000;0.000;2023-04-08T10:09:38;945.35;;;307.80;;
77968;SDS011;67161;0.000;0.000;2023-04-08T10:12:07;932.25;;;303.85;;
77968;SDS011;67161;0.000;0.000;2023-04-08T10:14:32;935.47;;;302.50;;
77968;SDS011;67161;0.000;0.000;2023-04-08T10:17:22;940.55;;;305.08;;
77968;SDS011;67161;0.000;0.000;2023-04-08T10:19:50;943.37;;;310.53;;
77968;SDS011;67161;0.000;0.000;2023-04-08T10:27:41;945.60;;;305.58;;
77968;SDS011;67161;0.000;0.000;2023-04-08T10:32:52;926.50;;;301.90;;
77968;SDS011;67161;0.000;0.000;2023-04-08T10:35:28;935.35;;;300.40;;
77968;SDS011;67161;0.000;0.000;2023-04-08T10:37:54;933.85;;;299.15;;
77968;SDS011;67161;0.000;0.000;2023-04-08T10:40:20;933.25;;;300.77;;
77968;SDS011;67161;0.000;0.000;2023-04-08T10:42:45;920.30;;;297.95;;
77968;SDS011;67161;0.000;0.000;2023-04-08T10:45:20;922.20;;;295.58;;
77968;SDS011;67161;0.000;0.000;2023-04-08T10:47:46;917.83;;;294.40;;
77968;SDS011;67161;0.000;0.000;2023-04-08T10:50:15;922.17;;;295.58;;
77968;SDS011;67161;0.000;0.000;2023-04-08T10:52:48;911.25;;;291.33;;
77968;SDS011;67161;0.000;0.000;2023-04-08T10:55:16;911.67;;;293.13;;
77968;SDS011;67161;0.000;0.000;2023-04-08T10:57:50;909.53;;;291.20;;
77968;SDS011;67161;0.000;0.000;2023-04-08T11:03:08;908.63;;;289.00;;
77968;SDS011;67161;0.000;0.000;2023-04-08T11:05:34;911.13;;;289.08;;
77968;SDS011;67161;0.000;0.000;2023-04-08T11:08:02;904.47;;;289.70;;
77968;SDS011;67161;0.000;0.000;2023-04-08T11:10:28;955.15;;;308.60;;
77968;SDS011;67161;0.000;0.000;2023-04-08T11:12:54;942.35;;;302.17;;
77968;SDS011;67161;0.000;0.000;2023-04-08T11:15:23;953.10;;;310.73;;
77968;SDS011;67161;0.000;0.000;2023-04-08T11:17:49;972.67;;;318.88;;
77968;SDS011;67161;0.000;0.000;2023-04-08T11:20:15;994.47;;;332.13;;
77968;SDS011;67161;0.000;0.000;2023-04-08T11:22:42;989.47;;;326.10;;
77968;SDS011;67161;0.000;0.000;2023-04-08T11:25:09;1033.25;;;346.83;;
77968;SDS011;67161;0.000;0.000;2023-04-08T11:27:35;990.45;;;330.70;;
77968;SDS011;67161;0.000;0.000;2023-04-08T11:30:03;989.28;;;329.60;;
77968;SDS011;67161;0.000;0.000;2023-04-08T11:32:30;981.28;;;326.20;;
77968;SDS011;67161;0.000;0.000;2023-04-08T11:35:00;959.97;;;319.50;;
77968;SDS011;67161;0.000;0.000;2023-04-08T11:37:40;957.35;;;316.38;;
77968;SDS011;67161;0.000;0.000;2023-04-08T11:40:07;943.55;;;310.00;;
77968;SDS011;67161;0.000;0.000;2023-04-08T11:42:36;941.35;;;308.17;;
77968;SDS011;67161;0.000;0.000;2023-04-08T11:45:10;948.55;;;310.05;;
77968;SDS011;67161;0.000;0.000;2023-04-08T11:47:36;952.25;;;315.08;;
77968;SDS011;67161;0.000;0.000;2023-04-08T11:50:02;973.50;;;326.25;;
77968;SDS011;67161;0.000;0.000;2023-04-08T11:55:12;957.03;;;313.80;;
77968;SDS011;67161;0.000;0.000;2023-04-08T11:57:47;953.22;;;313.02;;
77968;SDS011;67161;0.000;0.000;2023-04-08T12:00:13;959.28;;;315.83;;
77968;SDS011;67161;0.000;0.000;2023-04-08T12:02:39;957.72;;;313.67;;
77968;SDS011;67161;0.000;0.000;2023-04-08T12:05:05;964.58;;;317.63;;
77968;SDS011;67161;0.000;0.000;2023-04-08T12:07:31;953.60;;;313.25;;
77968;SDS011;67161;0.000;0.000;2023-04-08T12:09:57;963.67;;;316.70;;
77968;SDS011;67161;0.000;0.000;2023-04-08T12:12:22;944.28;;;310.73;;
77968;SDS011;67161;0.000;0.000;2023-04-08T12:14:48;949.70;;;308.65;;
77968;SDS011;67161;0.000;0.000;2023-04-08T12:17:14;944.13;;;309.13;;
77968;SDS011;67161;0.000;0.000;2023-04-08T12:19:40;947.25;;;308.13;;
77968;SDS011;67161;0.000;0.000;2023-04-08T12:22:05;946.63;;;305.00;;
77968;SDS011;67161;0.000;0.000;2023-04-08T12:24:31;937.25;;;304.10;;
77968;SDS011;67161;0.000;0.000;2023-04-08T12:26:57;938.67;;;306.77;;
77968;SDS011;67161;0.000;0.000;2023-04-08T12:29:22;944.78;;;307.15;;
77968;SDS011;67161;0.000;0.000;2023-04-08T12:31:48;939.67;;;308.92;;
77968;SDS011;67161;0.000;0.000;2023-04-08T12:34:14;947.78;;;311.00;;
77968;SDS011;67161;0.000;0.000;2023-04-08T12:36:40;951.00;;;308.23;;
77968;SDS011;67161;0.000;0.000;2023-04-08T12:39:06;983.10;;;323.23;;
77968;SDS011;67161;0.000;0.000;2023-04-08T12:41:32;946.38;;;310.17;;
77968;SDS011;67161;0.000;0.000;2023-04-08T12:43:58;939.22;;;307.88;;
77968;SDS011;67161;0.000;0.000;2023-04-08T12:46:25;935.00;;;304.58;;
77968;SDS011;67161;0.000;0.000;2023-04-08T12:48:50;930.33;;;300.77;;
77968;SDS011;67161;0.000;0.000;2023-04-08T12:51:16;932.80;;;301.20;;
77968;SDS011;67161;0.000;0.000;2023-04-08T12:53:42;924.47;;;296.13;;
77968;SDS011;67161;0.000;0.000;2023-04-08T12:56:07;922.00;;;294.42;;
77968;SDS011;67161;0.000;0.000;2023-04-08T12:58:33;928.15;;;298.10;;
77968;SDS011;67161;0.000;0.000;2023-04-08T13:00:58;922.28;;;296.85;;
77968;SDS011;67161;0.000;0.000;2023-04-08T13:03:24;926.97;;;298.38;;
77968;SDS011;67161;0.000;0.000;2023-04-08T13:05:52;933.97;;;304.50;;
77968;SDS011;67161;0.000;0.000;2023-04-08T13:08:17;937.47;;;300.85;;
77968;SDS011;67161;0.000;0.000;2023-04-08T13:10:43;905.78;;;297.00;;
77968;SDS011;67161;0.000;0.000;2023-04-08T13:13:09;921.97;;;298.70;;
77968;SDS011;67161;0.000;0.000;2023-04-08T13:15:35;920.38;;;298.95;;
77968;SDS011;67161;0.000;0.000;2023-04-08T13:18:01;912.08;;;299.13;;
77968;SDS011;67161;0.000;0.000;2023-04-08T13:20:28;912.10;;;297.58;;
77968;SDS011;67161;0.000;0.000;2023-04-08T13:22:54;916.05;;;298.27;;
77968;SDS011;67161;0.000;0.000;2023-04-08T13:25:20;914.33;;;297.15;;
77968;SDS011;67161;0.000;0.000;2023-04-08T13:27:45;902.38;;;294.05;;
77968;SDS011;67161;0.000;0.000;2023-04-08T13:30:11;913.05;;;298.77;;
77968;SDS011;67161;0.000;0.000;2023-04-08T13:32:37;931.65;;;303.10;;
77968;SDS011;67161;0.000;0.000;2023-04-08T13:35:03;932.45;;;305.58;;
77968;SDS011;67161;0.000;0.000;2023-04-08T13:37:29;920.85;;;301.65;;
77968;SDS011;67161;0.000;0.000;2023-04-08T13:39:55;919.50;;;301.52;;
77968;SDS011;67161;0.000;0.000;2023-04-08T13:42:21;924.03;;;301.05;;
77968;SDS011;67161;0.000;0.000;2023-04-08T13:44:47;911.47;;;294.73;;
77968;SDS011;67161;0.000;0.000;2023-04-08T13:47:13;903.17;;;294.85;;
77968;SDS011;67161;0.000;0.000;2023-04-08T13:49:38;918.53;;;297.23;;
77968;SDS011;67161;0.000;0.000;2023-04-08T13:52:05;924.33;;;299.98;;
77968;SDS011;67161;0.000;0.000;2023-04-08T13:54:31;931.50;;;298.40;;
77968;SDS011;67161;0.000;0.000;2023-04-08T13:56:57;930.97;;;300.48;;
77968;SDS011;67161;0.000;0.000;2023-04-08T13:59:22;931.38;;;299.98;;
77968;SDS011;67161;0.000;0.000;2023-04-08T14:01:48;928.55;;;296.70;;
77968;SDS011;67161;0.000;0.000;2023-04-08T14:04:17;918.25;;;296.08;;
77968;SDS011;67161;0.000;0.000;2023-04-08T14:06:44;918.10;;;291.67;;
77968;SDS011;67161;0.000;0.000;2023-04-08T14:09:10;919.70;;;292.77;;
77968;SDS011;67161;0.000;0.000;2023-04-08T14:11:36;911.25;;;291.95;;
77968;SDS011;67161;0.000;0.000;2023-04-08T14:14:02;907.40;;;289.67;;
77968;SDS011;67161;0.000;0.000;2023-04-08T14:16:27;914.08;;;290.70;;
77968;SDS011;67161;0.000;0.000;2023-04-08T14:18:55;919.95;;;292.23;;
77968;SDS011;67161;0.000;0.000;2023-04-08T14:21:21;919.25;;;291.60;;
77968;SDS011;67161;0.000;0.000;2023-04-08T14:23:47;911.92;;;290.25;;
77968;SDS011;67161;0.000;0.000;2023-04-08T14:26:13;900.67;;;286.23;;